createdAt,value
2017-10-24T00:00:26.939Z,0.00
2017-10-24T00:01:26.936Z,0.00
2017-10-24T00:02:26.937Z,0.00
2017-10-24T00:03:26.940Z,0.00
2017-10-24T00:04:26.939Z,0.00
2017-10-24T00:05:26.944Z,0.00
2017-10-24T00:06:26.941Z,0.00
2017-10-24T00:07:26.943Z,0.00
2017-10-24T00:08:26.948Z,0.00
2017-10-24T00:09:26.949Z,0.00
2017-10-24T00:10:26.956Z,0.00
2017-10-24T00:11:26.953Z,0.00
2017-10-24T00:12:26.958Z,0.00
2017-10-24T00:13:26.964Z,0.00
2017-10-24T00:14:26.971Z,0.00
2017-10-24T00:15:26.966Z,0.00
2017-10-24T00:16:26.965Z,0.00
2017-10-24T00:17:26.964Z,0.00
2017-10-24T00:18:26.969Z,0.00
2017-10-24T00:19:26.973Z,0.00
2017-10-24T00:20:26.972Z,0.00
2017-10-24T00:21:26.975Z,0.00
2017-10-24T00:22:26.980Z,0.00
2017-10-24T00:23:26.975Z,0.00
2017-10-24T00:24:26.981Z,0.00
2017-10-24T00:25:26.980Z,0.00
2017-10-24T00:26:26.989Z,0.00
2017-10-24T00:27:26.997Z,0.00
2017-10-24T00:28:26.991Z,0.00
2017-10-24T00:29:26.988Z,0.00
2017-10-24T00:30:26.995Z,0.00
2017-10-24T00:31:26.993Z,0.00
2017-10-24T00:32:26.997Z,0.00
2017-10-24T00:33:27.006Z,0.00
2017-10-24T00:34:27.006Z,0.00
2017-10-24T00:35:27.004Z,0.00
2017-10-24T00:36:27.003Z,0.00
2017-10-24T00:37:27.005Z,0.00
2017-10-24T00:38:27.004Z,0.00
2017-10-24T00:39:27.013Z,0.00
2017-10-24T00:40:27.027Z,0.00
2017-10-24T00:41:27.016Z,0.00
2017-10-24T00:42:27.014Z,0.00
2017-10-24T00:43:27.020Z,0.00
2017-10-24T00:44:27.019Z,0.00
2017-10-24T00:45:27.023Z,0.00
2017-10-24T00:46:27.023Z,0.00
2017-10-24T00:47:27.028Z,0.00
2017-10-24T00:48:27.030Z,0.00
2017-10-24T00:49:27.033Z,0.00
2017-10-24T00:50:27.029Z,0.00
2017-10-24T00:51:27.036Z,0.00
2017-10-24T00:52:27.036Z,0.00
2017-10-24T00:53:27.040Z,0.00
2017-10-24T00:54:27.040Z,0.00
2017-10-24T00:55:27.046Z,0.00
2017-10-24T00:56:27.045Z,0.00
2017-10-24T00:57:27.048Z,0.00
2017-10-24T00:58:27.049Z,0.00
2017-10-24T00:59:27.054Z,0.00
2017-10-24T01:00:27.054Z,0.00
2017-10-24T01:01:27.062Z,0.00
2017-10-24T01:02:27.062Z,0.00
2017-10-24T01:03:27.058Z,0.00
2017-10-24T01:04:27.063Z,0.00
2017-10-24T01:05:27.069Z,0.00
2017-10-24T01:06:27.062Z,0.00
2017-10-24T01:07:27.066Z,0.00
2017-10-24T01:08:27.075Z,0.00
2017-10-24T01:09:27.070Z,0.00
2017-10-24T01:10:27.073Z,0.00
2017-10-24T01:11:27.077Z,0.00
2017-10-24T01:12:27.074Z,0.00
2017-10-24T01:13:27.081Z,0.00
2017-10-24T01:14:27.084Z,0.00
2017-10-24T01:15:27.122Z,0.00
2017-10-24T01:16:27.114Z,0.00
2017-10-24T01:17:27.095Z,0.00
2017-10-24T01:18:27.091Z,0.00
2017-10-24T01:19:27.092Z,0.00
2017-10-24T01:20:27.091Z,0.00
2017-10-24T01:21:27.094Z,0.00
2017-10-24T01:22:27.101Z,0.00
2017-10-24T01:23:27.100Z,0.00
2017-10-24T01:24:27.097Z,0.00
2017-10-24T01:25:27.105Z,0.00
2017-10-24T01:26:27.103Z,0.00
2017-10-24T01:27:27.106Z,0.00
2017-10-24T01:28:27.113Z,0.00
2017-10-24T01:29:27.110Z,0.00
2017-10-24T01:30:27.111Z,0.00
2017-10-24T01:31:27.117Z,0.00
2017-10-24T01:32:27.131Z,0.00
2017-10-24T01:33:27.122Z,0.00
2017-10-24T01:34:27.121Z,0.00
2017-10-24T01:35:27.124Z,0.00
2017-10-24T01:36:27.123Z,0.00
2017-10-24T01:37:27.127Z,0.00
2017-10-24T01:38:27.125Z,0.00
2017-10-24T01:39:27.162Z,0.00
2017-10-24T01:40:27.140Z,0.00
2017-10-24T01:41:27.134Z,0.00
2017-10-24T01:42:27.135Z,0.00
2017-10-24T01:43:27.143Z,0.00
2017-10-24T01:44:27.140Z,0.00
2017-10-24T01:45:27.141Z,0.00
2017-10-24T01:46:27.147Z,0.00
2017-10-24T01:47:27.147Z,0.00
2017-10-24T01:48:27.156Z,0.00
2017-10-24T01:49:27.160Z,0.00
2017-10-24T01:50:27.154Z,0.00
2017-10-24T01:51:27.155Z,0.00
2017-10-24T01:52:27.154Z,0.00
2017-10-24T01:53:27.157Z,0.00
2017-10-24T01:54:27.160Z,0.00
2017-10-24T01:55:27.164Z,0.00
2017-10-24T01:56:27.162Z,0.00
2017-10-24T01:57:27.166Z,0.00
2017-10-24T01:58:27.166Z,0.00
2017-10-24T01:59:27.167Z,0.00
2017-10-24T02:00:27.179Z,0.00
2017-10-24T02:01:27.178Z,0.00
2017-10-24T02:02:27.182Z,0.00
2017-10-24T02:03:27.178Z,0.00
2017-10-24T02:04:27.201Z,0.00
2017-10-24T02:05:27.180Z,0.00
2017-10-24T02:06:27.180Z,0.00
2017-10-24T02:07:27.186Z,0.00
2017-10-24T02:08:27.193Z,0.00
2017-10-24T02:09:27.186Z,0.00
2017-10-24T02:10:27.194Z,0.00
2017-10-24T02:11:27.193Z,0.00
2017-10-24T02:12:27.193Z,0.00
2017-10-24T02:13:27.200Z,0.00
2017-10-24T02:14:27.198Z,0.00
2017-10-24T02:15:27.199Z,0.00
2017-10-24T02:16:27.213Z,0.00
2017-10-24T02:17:27.204Z,0.00
2017-10-24T02:18:27.208Z,0.00
2017-10-24T02:19:27.211Z,0.00
2017-10-24T02:20:27.211Z,0.00
2017-10-24T02:21:27.214Z,0.00
2017-10-24T02:22:27.218Z,0.00
2017-10-24T02:23:27.217Z,0.00
2017-10-24T02:24:27.221Z,0.00
2017-10-24T02:25:27.226Z,0.00
2017-10-24T02:26:27.225Z,0.00
2017-10-24T02:27:27.314Z,0.00
2017-10-24T02:28:27.224Z,0.00
2017-10-24T02:29:27.227Z,0.00
2017-10-24T02:30:27.228Z,0.00
2017-10-24T02:31:27.240Z,0.00
2017-10-24T02:32:27.240Z,0.00
2017-10-24T02:33:27.240Z,0.00
2017-10-24T02:34:27.240Z,0.00
2017-10-24T02:35:27.244Z,0.00
2017-10-24T02:36:27.240Z,0.00
2017-10-24T02:37:27.251Z,0.00
2017-10-24T02:38:27.243Z,0.00
2017-10-24T02:39:27.252Z,0.00
2017-10-24T02:40:27.248Z,0.00
2017-10-24T02:41:27.252Z,0.00
2017-10-24T02:42:27.255Z,0.00
2017-10-24T02:43:27.255Z,0.00
2017-10-24T02:44:27.269Z,0.00
2017-10-24T02:45:27.263Z,0.00
2017-10-24T02:46:27.265Z,0.00
2017-10-24T02:47:27.264Z,0.00
2017-10-24T02:48:27.276Z,0.00
2017-10-24T02:49:27.267Z,0.00
2017-10-24T02:50:27.275Z,0.00
2017-10-24T02:51:27.277Z,0.00
2017-10-24T02:52:27.274Z,0.00
2017-10-24T02:53:27.274Z,0.00
2017-10-24T02:54:27.285Z,0.00
2017-10-24T02:55:27.285Z,0.00
2017-10-24T02:56:27.283Z,0.00
2017-10-24T02:57:27.283Z,0.00
2017-10-24T02:58:27.292Z,0.00
2017-10-24T02:59:27.294Z,0.00
2017-10-24T03:00:27.297Z,0.00
2017-10-24T03:01:27.291Z,0.00
2017-10-24T03:02:27.293Z,0.00
2017-10-24T03:03:27.294Z,0.00
2017-10-24T03:04:27.300Z,0.00
2017-10-24T03:05:27.301Z,0.00
2017-10-24T03:06:27.300Z,0.00
2017-10-24T03:07:27.306Z,0.00
2017-10-24T03:08:27.304Z,0.00
2017-10-24T03:09:27.309Z,0.00
2017-10-24T03:10:27.310Z,0.00
2017-10-24T03:11:27.317Z,0.00
2017-10-24T03:12:27.321Z,0.00
2017-10-24T03:13:27.316Z,0.00
2017-10-24T03:14:27.317Z,0.00
2017-10-24T03:15:27.322Z,0.00
2017-10-24T03:16:27.326Z,0.00
2017-10-24T03:17:27.334Z,0.00
2017-10-24T03:18:27.324Z,0.00
2017-10-24T03:19:27.330Z,0.00
2017-10-24T03:20:27.337Z,0.00
2017-10-24T03:21:27.333Z,0.00
2017-10-24T03:22:27.334Z,0.00
2017-10-24T03:23:27.334Z,0.00
2017-10-24T03:24:27.333Z,0.00
2017-10-24T03:25:27.341Z,0.00
2017-10-24T03:26:27.342Z,0.00
2017-10-24T03:27:27.341Z,0.00
2017-10-24T03:28:27.345Z,0.00
2017-10-24T03:29:27.351Z,0.00
2017-10-24T03:30:27.357Z,0.00
2017-10-24T03:31:27.356Z,0.00
2017-10-24T03:32:27.351Z,0.00
2017-10-24T03:33:27.354Z,0.00
2017-10-24T03:34:27.359Z,0.00
2017-10-24T03:35:27.359Z,0.00
2017-10-24T03:36:27.363Z,0.00
2017-10-24T03:37:27.365Z,0.00
2017-10-24T03:38:27.374Z,0.00
2017-10-24T03:39:27.363Z,0.00
2017-10-24T03:40:27.421Z,0.00
2017-10-24T03:41:27.376Z,0.00
2017-10-24T03:42:27.399Z,0.00
2017-10-24T03:43:27.386Z,0.00
2017-10-24T03:44:27.401Z,0.00
2017-10-24T03:45:27.378Z,0.00
2017-10-24T03:46:27.383Z,0.00
2017-10-24T03:47:27.384Z,0.00
2017-10-24T03:48:27.385Z,0.00
2017-10-24T03:49:27.383Z,0.00
2017-10-24T03:50:27.392Z,0.00
2017-10-24T03:51:27.393Z,0.00
2017-10-24T03:52:27.397Z,0.00
2017-10-24T03:53:27.391Z,0.00
2017-10-24T03:54:27.394Z,0.00
2017-10-24T03:55:27.402Z,0.00
2017-10-24T03:56:27.400Z,0.00
2017-10-24T03:57:27.400Z,0.00
2017-10-24T03:58:27.401Z,0.00
2017-10-24T03:59:27.401Z,0.00
2017-10-24T04:00:27.413Z,0.00
2017-10-24T04:01:27.412Z,0.00
2017-10-24T04:02:27.410Z,0.00
2017-10-24T04:03:27.414Z,0.00
2017-10-24T04:04:27.415Z,0.00
2017-10-24T04:05:27.424Z,0.00
2017-10-24T04:06:27.423Z,0.00
2017-10-24T04:07:27.420Z,0.00
2017-10-24T04:08:27.425Z,0.00
2017-10-24T04:09:27.428Z,0.00
2017-10-24T04:10:27.424Z,0.00
2017-10-24T04:11:27.426Z,0.00
2017-10-24T04:12:27.434Z,0.00
2017-10-24T04:13:27.436Z,0.00
2017-10-24T04:14:27.430Z,0.00
2017-10-24T04:15:27.433Z,0.00
2017-10-24T04:16:27.440Z,0.00
2017-10-24T04:17:27.442Z,0.00
2017-10-24T04:18:27.444Z,0.00
2017-10-24T04:19:27.450Z,0.00
2017-10-24T04:20:27.442Z,0.00
2017-10-24T04:21:27.442Z,0.00
2017-10-24T04:22:27.451Z,0.00
2017-10-24T04:23:27.457Z,0.00
2017-10-24T04:24:27.452Z,0.00
2017-10-24T04:25:27.456Z,0.00
2017-10-24T04:26:27.472Z,0.00
2017-10-24T04:27:27.462Z,0.00
2017-10-24T04:28:27.462Z,0.00
2017-10-24T04:29:27.462Z,0.00
2017-10-24T04:30:27.469Z,0.00
2017-10-24T04:31:27.465Z,0.00
2017-10-24T04:32:27.468Z,0.00
2017-10-24T04:33:27.474Z,0.00
2017-10-24T04:34:27.474Z,0.00
2017-10-24T04:35:27.474Z,0.00
2017-10-24T04:36:27.477Z,0.00
2017-10-24T04:37:27.478Z,0.00
2017-10-24T04:38:27.476Z,0.00
2017-10-24T04:39:27.483Z,0.00
2017-10-24T04:40:27.489Z,0.00
2017-10-24T04:41:27.490Z,0.00
2017-10-24T04:42:27.486Z,0.00
2017-10-24T04:43:27.483Z,0.00
2017-10-24T04:44:27.494Z,0.00
2017-10-24T04:45:27.496Z,0.00
2017-10-24T04:46:27.495Z,0.00
2017-10-24T04:47:27.506Z,0.00
2017-10-24T04:48:27.502Z,0.00
2017-10-24T04:49:27.517Z,0.00
2017-10-24T04:50:27.503Z,0.00
2017-10-24T04:51:27.503Z,0.00
2017-10-24T04:52:27.503Z,0.00
2017-10-24T04:53:27.511Z,0.00
2017-10-24T04:54:27.512Z,0.00
2017-10-24T04:55:27.513Z,0.00
2017-10-24T04:56:27.517Z,0.00
2017-10-24T04:57:27.515Z,0.00
2017-10-24T04:58:27.513Z,0.00
2017-10-24T04:59:27.519Z,0.00
2017-10-24T05:00:27.519Z,0.00
2017-10-24T05:01:27.520Z,0.00
2017-10-24T05:02:27.523Z,0.00
2017-10-24T05:03:27.523Z,0.00
2017-10-24T05:04:27.526Z,0.00
2017-10-24T05:05:27.529Z,0.00
2017-10-24T05:06:27.531Z,0.00
2017-10-24T05:07:27.535Z,0.00
2017-10-24T05:08:27.536Z,0.00
2017-10-24T05:09:27.536Z,0.00
2017-10-24T05:10:27.539Z,0.00
2017-10-24T05:11:27.546Z,0.00
2017-10-24T05:12:27.552Z,0.00
2017-10-24T05:13:27.544Z,0.00
2017-10-24T05:14:27.553Z,0.00
2017-10-24T05:15:27.550Z,0.00
2017-10-24T05:16:27.553Z,0.00
2017-10-24T05:17:27.561Z,0.00
2017-10-24T05:18:27.555Z,0.00
2017-10-24T05:19:27.554Z,0.00
2017-10-24T05:20:27.580Z,0.00
2017-10-24T05:21:27.560Z,0.00
2017-10-24T05:22:27.566Z,0.00
2017-10-24T05:23:27.567Z,0.00
2017-10-24T05:24:27.565Z,0.00
2017-10-24T05:25:27.570Z,0.00
2017-10-24T05:26:27.570Z,0.00
2017-10-24T05:27:27.570Z,0.00
2017-10-24T05:28:27.574Z,0.00
2017-10-24T05:29:27.579Z,0.00
2017-10-24T05:30:27.578Z,0.00
2017-10-24T05:31:27.587Z,0.00
2017-10-24T05:32:27.583Z,0.00
2017-10-24T05:33:27.582Z,0.00
2017-10-24T05:34:27.583Z,0.00
2017-10-24T05:35:27.586Z,0.00
2017-10-24T05:36:27.592Z,4.00
2017-10-24T05:37:27.595Z,4.00
2017-10-24T05:38:27.606Z,0.00
2017-10-24T05:39:27.595Z,4.00
2017-10-24T05:40:27.600Z,4.00
2017-10-24T05:41:27.609Z,4.00
2017-10-24T05:42:27.605Z,4.00
2017-10-24T05:43:27.603Z,4.00
2017-10-24T05:44:27.605Z,8.00
2017-10-24T05:45:27.605Z,4.00
2017-10-24T05:46:27.618Z,4.00
2017-10-24T05:47:27.608Z,8.00
2017-10-24T05:48:27.615Z,8.00
2017-10-24T05:49:27.617Z,12.00
2017-10-24T05:50:27.621Z,12.00
2017-10-24T05:51:27.619Z,12.00
2017-10-24T05:52:27.625Z,16.00
2017-10-24T05:53:27.621Z,20.00
2017-10-24T05:54:27.624Z,24.00
2017-10-24T05:55:27.622Z,20.00
2017-10-24T05:56:27.631Z,24.00
2017-10-24T05:57:27.630Z,24.00
2017-10-24T05:58:27.637Z,28.00
2017-10-24T05:59:27.635Z,28.00
2017-10-24T06:00:27.643Z,28.00
2017-10-24T06:01:27.646Z,32.00
2017-10-24T06:02:27.635Z,36.00
2017-10-24T06:03:27.643Z,40.00
2017-10-24T06:04:27.643Z,44.00
2017-10-24T06:05:27.642Z,44.00
2017-10-24T06:06:27.684Z,44.00
2017-10-24T06:07:27.644Z,52.00
2017-10-24T06:08:27.647Z,56.00
2017-10-24T06:09:27.660Z,56.00
2017-10-24T06:10:27.654Z,56.00
2017-10-24T06:11:27.656Z,64.00
2017-10-24T06:12:27.659Z,64.00
2017-10-24T06:13:27.663Z,68.00
2017-10-24T06:14:27.669Z,64.00
2017-10-24T06:15:27.662Z,64.00
2017-10-24T06:16:27.662Z,68.00
2017-10-24T06:17:27.661Z,68.00
2017-10-24T06:18:27.674Z,72.00
2017-10-24T06:19:27.672Z,80.00
2017-10-24T06:20:27.672Z,88.00
2017-10-24T06:21:27.678Z,96.00
2017-10-24T06:22:27.680Z,96.00
2017-10-24T06:23:27.675Z,88.00
2017-10-24T06:24:27.680Z,80.00
2017-10-24T06:25:27.680Z,92.00
2017-10-24T06:26:27.681Z,92.00
2017-10-24T06:27:27.683Z,92.00
2017-10-24T06:28:27.701Z,96.00
2017-10-24T06:29:27.689Z,108.00
2017-10-24T06:30:27.697Z,120.00
2017-10-24T06:31:27.690Z,160.00
2017-10-24T06:32:27.695Z,208.00
2017-10-24T06:33:27.694Z,240.00
2017-10-24T06:34:27.696Z,244.00
2017-10-24T06:35:27.697Z,252.00
2017-10-24T06:36:27.698Z,268.00
2017-10-24T06:37:27.698Z,296.00
2017-10-24T06:38:27.703Z,316.00
2017-10-24T06:39:27.709Z,328.00
2017-10-24T06:40:27.705Z,340.00
2017-10-24T06:41:27.708Z,344.00
2017-10-24T06:42:27.713Z,364.00
2017-10-24T06:43:27.714Z,388.00
2017-10-24T06:44:27.711Z,408.00
2017-10-24T06:45:27.714Z,452.00
2017-10-24T06:46:27.713Z,524.00
2017-10-24T06:47:27.722Z,592.00
2017-10-24T06:48:27.718Z,712.00
2017-10-24T06:49:27.720Z,820.00
2017-10-24T06:50:27.721Z,884.00
2017-10-24T06:51:27.724Z,900.00
2017-10-24T06:52:27.732Z,916.00
2017-10-24T06:53:27.729Z,948.00
2017-10-24T06:54:27.729Z,984.00
2017-10-24T06:55:27.730Z,1004.00
2017-10-24T06:56:27.748Z,1016.00
2017-10-24T06:57:27.737Z,1020.00
2017-10-24T06:58:27.741Z,1036.00
2017-10-24T06:59:27.740Z,1056.00
2017-10-24T07:00:27.739Z,1092.00
2017-10-24T07:01:27.741Z,1124.00
2017-10-24T07:02:27.747Z,1152.00
2017-10-24T07:03:27.747Z,1172.00
2017-10-24T07:04:27.748Z,1188.00
2017-10-24T07:05:27.761Z,1200.00
2017-10-24T07:06:27.773Z,1216.00
2017-10-24T07:07:27.758Z,1232.00
2017-10-24T07:08:27.761Z,1236.00
2017-10-24T07:09:27.760Z,1244.00
2017-10-24T07:10:27.765Z,1252.00
2017-10-24T07:11:27.765Z,1272.00
2017-10-24T07:12:27.766Z,1288.00
2017-10-24T07:13:27.773Z,1312.00
2017-10-24T07:14:27.825Z,1340.00
2017-10-24T07:15:27.848Z,1368.00
2017-10-24T07:16:27.775Z,1388.00
2017-10-24T07:17:27.773Z,1400.00
2017-10-24T07:18:27.781Z,1392.00
2017-10-24T07:19:27.784Z,1376.00
2017-10-24T07:20:27.781Z,1364.00
2017-10-24T07:21:27.784Z,1356.00
2017-10-24T07:22:27.790Z,1344.00
2017-10-24T07:23:27.791Z,1340.00
2017-10-24T07:24:27.789Z,1344.00
2017-10-24T07:25:27.798Z,1352.00
2017-10-24T07:26:27.792Z,1360.00
2017-10-24T07:27:27.795Z,1380.00
2017-10-24T07:28:27.802Z,1408.00
2017-10-24T07:29:27.809Z,1436.00
2017-10-24T07:30:27.815Z,1468.00
2017-10-24T07:31:27.805Z,1488.00
2017-10-24T07:32:27.804Z,1512.00
2017-10-24T07:33:27.810Z,1536.00
2017-10-24T07:34:27.828Z,1540.00
2017-10-24T07:36:27.815Z,1576.00
2017-10-24T07:37:27.814Z,1596.00
2017-10-24T07:38:27.825Z,1648.00
2017-10-24T07:39:27.827Z,1684.00
2017-10-24T07:40:27.825Z,1716.00
2017-10-24T07:41:27.823Z,1728.00
2017-10-24T07:42:27.831Z,1716.00
2017-10-24T07:43:27.827Z,1688.00
2017-10-24T07:44:27.834Z,1660.00
2017-10-24T07:45:27.831Z,1628.00
2017-10-24T07:46:27.838Z,1596.00
2017-10-24T07:47:27.840Z,1576.00
2017-10-24T07:48:27.839Z,1568.00
2017-10-24T07:49:27.842Z,1568.00
2017-10-24T07:50:27.846Z,1604.00
2017-10-24T07:51:27.845Z,1616.00
2017-10-24T07:52:27.855Z,1640.00
2017-10-24T07:53:27.852Z,1668.00
2017-10-24T07:54:27.862Z,1668.00
2017-10-24T07:55:27.853Z,1584.00
2017-10-24T07:56:27.864Z,1692.00
2017-10-24T07:57:27.858Z,1540.00
2017-10-24T07:58:27.866Z,1560.00
2017-10-24T07:59:27.872Z,1484.00
2017-10-24T08:00:27.864Z,1360.00
2017-10-24T08:01:27.876Z,1424.00
2017-10-24T08:02:27.873Z,1384.00
2017-10-24T08:03:27.875Z,1248.00
2017-10-24T08:04:27.880Z,1188.00
2017-10-24T08:05:27.883Z,1196.00
2017-10-24T08:06:27.882Z,1204.00
2017-10-24T08:07:27.883Z,1212.00
2017-10-24T08:08:27.883Z,1288.00
2017-10-24T08:09:27.895Z,1380.00
2017-10-24T08:10:27.897Z,1432.00
2017-10-24T08:11:27.890Z,1464.00
2017-10-24T08:12:27.900Z,1400.00
2017-10-24T08:13:27.898Z,1428.00
2017-10-24T08:14:27.901Z,1348.00
2017-10-24T08:15:27.902Z,1308.00
2017-10-24T08:16:27.907Z,1312.00
2017-10-24T08:17:27.905Z,1304.00
2017-10-24T08:18:27.908Z,1268.00
2017-10-24T08:19:27.910Z,1160.00
2017-10-24T08:20:27.913Z,1048.00
2017-10-24T08:21:27.916Z,992.00
2017-10-24T08:22:27.922Z,976.00
2017-10-24T08:23:27.920Z,1096.00
2017-10-24T08:24:27.920Z,1100.00
2017-10-24T08:25:27.919Z,1056.00
2017-10-24T08:26:27.936Z,1140.00
2017-10-24T08:27:27.939Z,1240.00
2017-10-24T08:28:27.928Z,1244.00
2017-10-24T08:29:27.932Z,1248.00
2017-10-24T08:30:27.943Z,1204.00
2017-10-24T08:31:27.942Z,1212.00
2017-10-24T08:32:28.214Z,1292.00
2017-10-24T08:33:27.940Z,1300.00
2017-10-24T08:34:27.941Z,1344.00
2017-10-24T08:35:27.946Z,1432.00
2017-10-24T08:36:27.947Z,1468.00
2017-10-24T08:37:27.952Z,1552.00
2017-10-24T08:38:27.950Z,1708.00
2017-10-24T08:39:27.960Z,1840.00
2017-10-24T08:40:27.959Z,2008.00
2017-10-24T08:41:27.963Z,2228.00
2017-10-24T08:42:27.964Z,2312.00
2017-10-24T08:43:27.965Z,2320.00
2017-10-24T08:44:27.964Z,2280.00
2017-10-24T08:45:27.973Z,2040.00
2017-10-24T08:46:27.974Z,1800.00
2017-10-24T08:47:27.975Z,1588.00
2017-10-24T08:48:27.975Z,1436.00
2017-10-24T08:49:28.165Z,1360.00
2017-10-24T08:50:28.406Z,1344.00
2017-10-24T08:51:28.192Z,1292.00
2017-10-24T08:52:28.206Z,1252.00
2017-10-24T08:53:28.456Z,1224.00
2017-10-24T08:54:28.303Z,1300.00
2017-10-24T08:55:28.092Z,1368.00
2017-10-24T08:56:28.005Z,1372.00
2017-10-24T08:57:27.996Z,1528.00
2017-10-24T08:58:28.000Z,1536.00
2017-10-24T08:59:28.008Z,1456.00
2017-10-24T09:00:28.005Z,1480.00
2017-10-24T09:01:28.051Z,1628.00
2017-10-24T09:02:28.010Z,1640.00
2017-10-24T09:03:28.008Z,1612.00
2017-10-24T09:04:28.019Z,1580.00
2017-10-24T09:05:28.016Z,1368.00
2017-10-24T09:06:28.016Z,1312.00
2017-10-24T09:07:28.018Z,1412.00
2017-10-24T09:08:28.022Z,1616.00
2017-10-24T09:09:28.028Z,1728.00
2017-10-24T09:10:28.024Z,1900.00
2017-10-24T09:11:28.035Z,1976.00
2017-10-24T09:12:28.036Z,2172.00
2017-10-24T09:13:28.036Z,2480.00
2017-10-24T09:14:28.082Z,2604.00
2017-10-24T09:15:28.043Z,2420.00
2017-10-24T09:16:28.042Z,2420.00
2017-10-24T09:17:28.042Z,2236.00
2017-10-24T09:18:28.045Z,2084.00
2017-10-24T09:19:28.044Z,1848.00
2017-10-24T09:20:28.052Z,1652.00
2017-10-24T09:21:28.052Z,1664.00
2017-10-24T09:22:28.052Z,1620.00
2017-10-24T09:23:28.079Z,1780.00
2017-10-24T09:24:28.073Z,1848.00
2017-10-24T09:25:28.060Z,1940.00
2017-10-24T09:26:28.064Z,1784.00
2017-10-24T09:27:28.068Z,1732.00
2017-10-24T09:28:28.067Z,1772.00
2017-10-24T09:29:28.079Z,1788.00
2017-10-24T09:30:28.071Z,1868.00
2017-10-24T09:31:28.072Z,1868.00
2017-10-24T09:32:28.078Z,1836.00
2017-10-24T09:33:28.086Z,1680.00
2017-10-24T09:34:28.091Z,1576.00
2017-10-24T09:35:28.086Z,1584.00
2017-10-24T09:36:28.104Z,1636.00
2017-10-24T09:37:28.094Z,1708.00
2017-10-24T09:38:28.094Z,1692.00
2017-10-24T09:39:28.095Z,1680.00
2017-10-24T09:40:28.101Z,1508.00
2017-10-24T09:41:28.095Z,1564.00
2017-10-24T09:42:28.102Z,1548.00
2017-10-24T09:43:28.103Z,1504.00
2017-10-24T09:44:28.103Z,1596.00
2017-10-24T09:45:28.105Z,1720.00
2017-10-24T09:46:28.117Z,1616.00
2017-10-24T09:47:28.112Z,1508.00
2017-10-24T09:48:28.112Z,1444.00
2017-10-24T09:49:28.132Z,1452.00
2017-10-24T09:50:28.120Z,1500.00
2017-10-24T09:51:28.125Z,1720.00
2017-10-24T09:52:28.126Z,1876.00
2017-10-24T09:53:28.127Z,2124.00
2017-10-24T09:54:28.126Z,2204.00
2017-10-24T09:55:28.132Z,2164.00
2017-10-24T09:56:28.136Z,2100.00
2017-10-24T09:57:28.137Z,2356.00
2017-10-24T09:58:28.137Z,2456.00
2017-10-24T09:59:28.153Z,2656.00
2017-10-24T10:00:28.145Z,2824.00
2017-10-24T10:01:28.151Z,2960.00
2017-10-24T10:02:28.152Z,3064.00
2017-10-24T10:03:28.154Z,3292.00
2017-10-24T10:06:00.265Z,3612.00
2017-10-24T10:07:00.230Z,3772.00
2017-10-24T10:08:00.231Z,3920.00
2017-10-24T10:09:00.234Z,3900.00
2017-10-24T10:10:00.243Z,3712.00
2017-10-24T10:11:00.242Z,3440.00
2017-10-24T10:12:00.250Z,3204.00
2017-10-24T10:13:00.245Z,2996.00
2017-10-24T10:14:00.247Z,2860.00
2017-10-24T10:15:00.251Z,2780.00
2017-10-24T10:16:00.253Z,2796.00
2017-10-24T10:17:00.253Z,3188.00
2017-10-24T10:18:00.257Z,3424.00
2017-10-24T10:19:00.261Z,3408.00
2017-10-24T10:20:00.267Z,3280.00
2017-10-24T10:21:11.741Z,3316.00
2017-10-24T10:24:00.275Z,2640.00
2017-10-24T10:25:00.277Z,2380.00
2017-10-24T10:26:00.276Z,2188.00
2017-10-24T10:27:00.289Z,2320.00
2017-10-24T10:28:00.287Z,2600.00
2017-10-24T10:29:00.302Z,2784.00
2017-10-24T10:30:00.288Z,2724.00
2017-10-24T10:31:00.294Z,2624.00
2017-10-24T10:32:00.305Z,2476.00
2017-10-24T10:33:00.300Z,2540.00
2017-10-24T10:34:00.303Z,2580.00
2017-10-24T10:35:00.306Z,2496.00
2017-10-24T10:36:00.304Z,2480.00
2017-10-24T10:37:00.321Z,2260.00
2017-10-24T10:38:00.322Z,2416.00
2017-10-24T10:39:00.317Z,2384.00
2017-10-24T10:40:00.325Z,2208.00
2017-10-24T10:41:00.327Z,2232.00
2017-10-24T10:42:00.331Z,2196.00
2017-10-24T10:43:00.327Z,2208.00
2017-10-24T10:44:00.332Z,2116.00
2017-10-24T10:45:00.335Z,2076.00
2017-10-24T10:46:00.348Z,2212.00
2017-10-24T10:47:00.346Z,2156.00
2017-10-24T10:48:00.344Z,2268.00
2017-10-24T10:49:00.351Z,2376.00
2017-10-24T10:50:00.355Z,2288.00
2017-10-24T10:51:00.354Z,2248.00
2017-10-24T10:52:00.356Z,2520.00
2017-10-24T10:53:00.357Z,2936.00
2017-10-24T10:54:00.365Z,3392.00
2017-10-24T10:55:00.364Z,3912.00
2017-10-24T10:56:00.365Z,3952.00
2017-10-24T10:57:00.378Z,3656.00
2017-10-24T10:58:00.372Z,3308.00
2017-10-24T10:59:00.375Z,3192.00
2017-10-24T11:00:00.379Z,3124.00
2017-10-24T11:01:00.380Z,2856.00
2017-10-24T11:02:00.390Z,2772.00
2017-10-24T11:03:00.395Z,2648.00
2017-10-24T11:04:00.389Z,2824.00
2017-10-24T11:05:00.403Z,2708.00
2017-10-24T11:06:00.399Z,2760.00
2017-10-24T11:07:00.398Z,2708.00
2017-10-24T11:08:00.405Z,2580.00
2017-10-24T11:09:00.435Z,2360.00
2017-10-24T11:10:00.422Z,2308.00
2017-10-24T11:11:00.415Z,2264.00
2017-10-24T11:12:00.415Z,2324.00
2017-10-24T11:13:00.425Z,2372.00
2017-10-24T11:14:00.426Z,2588.00
2017-10-24T11:15:00.426Z,2540.00
2017-10-24T11:16:00.424Z,2704.00
2017-10-24T11:17:00.434Z,3020.00
2017-10-24T11:18:00.440Z,3224.00
2017-10-24T11:19:00.435Z,3100.00
2017-10-24T11:20:00.442Z,2856.00
2017-10-24T11:21:00.442Z,2484.00
2017-10-24T11:22:00.444Z,2480.00
2017-10-24T11:23:00.452Z,2432.00
2017-10-24T11:24:00.464Z,2184.00
2017-10-24T11:25:00.453Z,1992.00
2017-10-24T11:26:00.461Z,2068.00
2017-10-24T11:27:00.460Z,1940.00
2017-10-24T11:28:00.465Z,1856.00
2017-10-24T11:29:00.468Z,1864.00
2017-10-24T11:30:00.476Z,1788.00
2017-10-24T11:31:00.475Z,1576.00
2017-10-24T11:32:00.476Z,1668.00
2017-10-24T11:33:00.485Z,1692.00
2017-10-24T11:34:00.483Z,1672.00
2017-10-24T11:35:00.485Z,1716.00
2017-10-24T11:36:00.502Z,2076.00
2017-10-24T11:37:00.499Z,2124.00
2017-10-24T11:38:00.504Z,1988.00
2017-10-24T11:39:00.510Z,2180.00
2017-10-24T11:40:00.804Z,2208.00
2017-10-24T11:41:00.598Z,2064.00
2017-10-24T11:42:00.511Z,1964.00
2017-10-24T11:43:00.510Z,1832.00
2017-10-24T11:44:00.651Z,1672.00
2017-10-24T11:45:00.523Z,1700.00
2017-10-24T11:46:00.520Z,1804.00
2017-10-24T11:47:01.705Z,1932.00
2017-10-24T11:48:00.527Z,1872.00
2017-10-24T11:49:00.534Z,2128.00
2017-10-24T11:50:00.536Z,2016.00
2017-10-24T11:51:00.536Z,2036.00
2017-10-24T11:52:00.546Z,1928.00
2017-10-24T11:53:00.545Z,1980.00
2017-10-24T11:54:00.545Z,1896.00
2017-10-24T11:55:00.549Z,1808.00
2017-10-24T11:56:00.549Z,1708.00
2017-10-24T11:57:00.556Z,1664.00
2017-10-24T11:58:00.564Z,1496.00
2017-10-24T11:59:00.563Z,1480.00
2017-10-24T12:00:00.567Z,1388.00
2017-10-24T12:01:00.573Z,1296.00
2017-10-24T12:02:00.578Z,1336.00
2017-10-24T12:03:00.573Z,1316.00
2017-10-24T12:04:00.579Z,1380.00
2017-10-24T12:05:00.578Z,1408.00
2017-10-24T12:06:00.584Z,1432.00
2017-10-24T12:07:00.589Z,1376.00
2017-10-24T12:08:00.591Z,1472.00
2017-10-24T12:09:00.590Z,1500.00
2017-10-24T12:10:00.597Z,1444.00
2017-10-24T12:11:00.599Z,1400.00
2017-10-24T12:12:00.603Z,1344.00
2017-10-24T12:13:00.606Z,1244.00
2017-10-24T12:14:00.617Z,1112.00
2017-10-24T12:15:00.614Z,1176.00
2017-10-24T12:16:00.616Z,1176.00
2017-10-24T12:17:00.627Z,1300.00
2017-10-24T12:18:00.623Z,1288.00
2017-10-24T12:19:00.831Z,1180.00
2017-10-24T12:20:00.632Z,1268.00
2017-10-24T12:21:00.636Z,1192.00
2017-10-24T12:22:00.634Z,1236.00
2017-10-24T12:23:00.633Z,1144.00
2017-10-24T12:24:00.644Z,1084.00
2017-10-24T12:25:00.655Z,1168.00
2017-10-24T12:26:00.642Z,1088.00
2017-10-24T12:27:00.651Z,1136.00
2017-10-24T12:28:00.651Z,1140.00
2017-10-24T12:29:00.661Z,1120.00
2017-10-24T12:30:00.659Z,948.00
2017-10-24T12:31:00.663Z,976.00
2017-10-24T12:32:00.669Z,1000.00
2017-10-24T12:33:00.667Z,868.00
2017-10-24T12:34:00.668Z,892.00
2017-10-24T12:35:00.672Z,772.00
2017-10-24T12:36:00.672Z,804.00
2017-10-24T12:37:00.679Z,692.00
2017-10-24T12:38:00.699Z,700.00
2017-10-24T12:39:00.685Z,692.00
2017-10-24T12:40:00.685Z,656.00
2017-10-24T12:41:00.690Z,672.00
2017-10-24T12:42:00.694Z,688.00
2017-10-24T12:43:00.696Z,668.00
2017-10-24T12:44:00.704Z,860.00
2017-10-24T12:45:00.702Z,844.00
2017-10-24T12:46:00.704Z,880.00